createdAt,value
2019-06-07T00:07:36.021Z,9.26
2019-06-07T00:17:36.241Z,9.06
2019-06-07T00:27:36.054Z,9.00
2019-06-07T00:37:36.020Z,9.04
2019-06-07T00:47:36.086Z,9.09
2019-06-07T00:57:36.052Z,8.97
2019-06-07T01:07:36.002Z,8.78
2019-06-07T01:17:50.089Z,8.76
2019-06-07T01:27:36.063Z,9.32
2019-06-07T01:37:36.101Z,10.01
2019-06-07T01:47:36.139Z,10.54
2019-06-07T01:57:47.314Z,10.54
2019-06-07T02:07:36.080Z,10.51
2019-06-07T02:17:36.086Z,10.55
2019-06-07T02:27:36.060Z,10.17
2019-06-07T02:37:37.204Z,9.27
2019-06-07T02:47:38.173Z,8.69
2019-06-07T02:57:40.913Z,8.51
2019-06-07T03:07:39.142Z,8.42
2019-06-07T03:17:38.211Z,8.44
2019-06-07T03:27:44.185Z,8.34
2019-06-07T03:37:40.718Z,8.48
2019-06-07T03:47:39.183Z,9.01
2019-06-07T03:58:23.774Z,9.62
2019-06-07T04:07:38.783Z,10.00
2019-06-07T04:17:37.097Z,10.02
2019-06-07T04:27:39.298Z,10.22
2019-06-07T04:37:39.311Z,10.19
2019-06-07T04:47:37.247Z,10.35
2019-06-07T04:57:37.592Z,10.72
2019-06-07T05:07:37.800Z,11.14
2019-06-07T05:17:37.193Z,11.61
2019-06-07T05:27:38.670Z,12.25
2019-06-07T05:37:37.962Z,12.79
2019-06-07T05:47:40.284Z,14.20
2019-06-07T05:57:38.376Z,14.56
2019-06-07T06:07:38.849Z,14.89
2019-06-07T06:17:37.770Z,15.69
2019-06-07T06:28:05.844Z,15.89
2019-06-07T06:37:40.405Z,15.81
2019-06-07T06:47:36.149Z,15.82
2019-06-07T06:57:36.092Z,16.14
2019-06-07T07:07:36.197Z,17.00
2019-06-07T07:17:50.644Z,17.67
2019-06-07T07:27:36.173Z,18.29
2019-06-07T07:37:36.149Z,18.04
2019-06-07T07:47:55.860Z,18.28
2019-06-07T07:57:36.690Z,18.93
2019-06-07T08:07:36.157Z,18.37
2019-06-07T08:17:36.208Z,19.36
2019-06-07T08:27:36.171Z,19.62
2019-06-07T08:38:13.990Z,19.27
2019-06-07T08:47:36.240Z,19.66
2019-06-07T08:57:36.168Z,20.91
2019-06-07T09:07:36.157Z,21.31
2019-06-07T09:17:36.215Z,21.85
2019-06-07T09:27:36.805Z,21.06
2019-06-07T09:38:04.166Z,22.06
2019-06-07T09:47:36.218Z,22.53
2019-06-07T09:57:37.926Z,22.64
2019-06-07T10:07:36.244Z,23.08
2019-06-07T10:17:36.233Z,23.40
2019-06-07T10:27:36.212Z,24.18
2019-06-07T10:37:36.264Z,24.16
2019-06-07T10:47:36.223Z,24.57
2019-06-07T10:57:36.194Z,25.38
2019-06-07T11:07:36.310Z,24.95
2019-06-07T11:17:36.266Z,24.61
2019-06-07T11:27:38.059Z,24.94
2019-06-07T11:37:36.361Z,24.73
2019-06-07T11:47:36.254Z,24.39
2019-06-07T11:57:36.200Z,24.28
2019-06-07T12:07:36.264Z,24.44
2019-06-07T12:17:36.223Z,23.60
2019-06-07T12:27:36.202Z,23.16
2019-06-07T12:37:43.664Z,23.52
2019-06-07T12:47:36.244Z,24.71
2019-06-07T12:57:36.305Z,24.84
2019-06-07T13:07:36.249Z,24.18
2019-06-07T13:17:36.225Z,23.99
2019-06-07T13:27:36.204Z,23.48
2019-06-07T13:37:36.132Z,23.59
2019-06-07T13:47:36.163Z,23.47
2019-06-07T13:57:39.897Z,23.08
2019-06-07T14:07:37.204Z,22.74
2019-06-07T14:17:36.150Z,22.65
2019-06-07T14:27:36.210Z,22.55
2019-06-07T14:37:36.185Z,22.27
2019-06-07T14:47:36.158Z,21.78
2019-06-07T14:57:36.180Z,20.42
2019-06-07T15:07:36.109Z,17.36
2019-06-07T15:17:36.208Z,16.95
2019-06-07T15:27:37.478Z,16.46
2019-06-07T15:37:36.695Z,16.22
2019-06-07T15:47:40.659Z,16.30
2019-06-07T15:57:37.266Z,16.33
2019-06-07T16:07:36.301Z,15.48
2019-06-07T16:17:37.236Z,15.31
2019-06-07T16:27:36.803Z,15.04
2019-06-07T16:37:36.324Z,14.42
2019-06-07T16:47:38.724Z,14.26
2019-06-07T16:57:36.673Z,14.13
2019-06-07T17:07:38.155Z,14.30
2019-06-07T17:17:36.128Z,14.40
2019-06-07T17:27:36.238Z,14.75
2019-06-07T17:37:36.203Z,14.93
2019-06-07T17:47:36.162Z,15.02
2019-06-07T17:57:36.207Z,15.07
2019-06-07T18:07:36.189Z,15.20
2019-06-07T18:17:36.260Z,15.32
2019-06-07T18:27:36.225Z,15.44
2019-06-07T18:37:36.194Z,15.51
2019-06-07T18:47:36.053Z,15.45
2019-06-07T18:57:36.134Z,15.48
2019-06-07T19:07:36.200Z,15.44
2019-06-07T19:17:36.173Z,15.43
2019-06-07T19:27:36.230Z,15.38
2019-06-07T19:37:36.197Z,15.28
2019-06-07T19:47:36.170Z,15.24
2019-06-07T19:57:36.113Z,15.15
2019-06-07T20:07:36.204Z,15.18
2019-06-07T20:17:36.171Z,15.16
2019-06-07T20:27:37.273Z,15.09
2019-06-07T20:37:36.207Z,15.16
2019-06-07T20:47:36.174Z,15.15
2019-06-07T20:57:36.140Z,15.09
2019-06-07T21:07:36.185Z,15.14
2019-06-07T21:17:36.199Z,15.32
2019-06-07T21:27:36.122Z,15.40
2019-06-07T21:37:36.216Z,15.53
2019-06-07T21:47:36.179Z,15.46
2019-06-07T21:57:36.133Z,15.31
2019-06-07T22:07:36.215Z,15.20
2019-06-07T22:17:36.466Z,15.21
2019-06-07T22:27:36.137Z,15.03
2019-06-07T22:37:36.248Z,14.84
2019-06-07T22:47:36.158Z,14.75
2019-06-07T22:57:36.146Z,14.66
2019-06-07T23:07:36.938Z,14.69
2019-06-07T23:17:36.993Z,14.63
2019-06-07T23:27:36.142Z,14.61
2019-06-07T23:37:36.120Z,14.62
2019-06-07T23:47:36.218Z,14.63
2019-06-07T23:57:36.133Z,14.67
